sensor_id;sensor_type;location;lat;lon;timestamp;P1;durP1;ratioP1;P2;durP2;ratioP2
85081;SDS011;75424;50.762;7.178;2024-03-22T00:00:19;16.98;;;9.75;;
85081;SDS011;75424;50.762;7.178;2024-03-22T00:02:44;19.80;;;11.23;;
85081;SDS011;75424;50.762;7.178;2024-03-22T00:05:09;17.73;;;10.02;;
85081;SDS011;75424;50.762;7.178;2024-03-22T00:07:35;19.20;;;10.23;;
85081;SDS011;75424;50.762;7.178;2024-03-22T00:10:01;19.35;;;10.80;;
85081;SDS011;75424;50.762;7.178;2024-03-22T00:12:27;16.10;;;9.18;;
85081;SDS011;75424;50.762;7.178;2024-03-22T00:14:52;19.70;;;9.80;;
85081;SDS011;75424;50.762;7.178;2024-03-22T00:17:19;20.90;;;10.73;;
85081;SDS011;75424;50.762;7.178;2024-03-22T00:19:45;22.08;;;10.77;;
85081;SDS011;75424;50.762;7.178;2024-03-22T00:22:10;18.67;;;10.90;;
85081;SDS011;75424;50.762;7.178;2024-03-22T00:24:35;19.95;;;9.80;;
85081;SDS011;75424;50.762;7.178;2024-03-22T00:27:01;17.90;;;10.30;;
85081;SDS011;75424;50.762;7.178;2024-03-22T00:29:26;20.67;;;11.23;;
85081;SDS011;75424;50.762;7.178;2024-03-22T00:31:51;18.77;;;10.55;;
85081;SDS011;75424;50.762;7.178;2024-03-22T00:34:17;23.48;;;11.40;;
85081;SDS011;75424;50.762;7.178;2024-03-22T00:36:42;22.00;;;10.60;;
85081;SDS011;75424;50.762;7.178;2024-03-22T00:39:08;21.73;;;10.73;;
85081;SDS011;75424;50.762;7.178;2024-03-22T00:41:33;20.13;;;10.95;;
85081;SDS011;75424;50.762;7.178;2024-03-22T00:43:59;19.65;;;10.05;;
85081;SDS011;75424;50.762;7.178;2024-03-22T00:46:24;19.15;;;9.82;;
85081;SDS011;75424;50.762;7.178;2024-03-22T00:48:49;19.17;;;10.13;;
85081;SDS011;75424;50.762;7.178;2024-03-22T00:51:15;18.83;;;10.75;;
85081;SDS011;75424;50.762;7.178;2024-03-22T00:53:40;20.13;;;10.07;;
85081;SDS011;75424;50.762;7.178;2024-03-22T00:56:05;20.38;;;10.98;;
85081;SDS011;75424;50.762;7.178;2024-03-22T00:58:31;27.73;;;13.07;;
85081;SDS011;75424;50.762;7.178;2024-03-22T01:00:56;24.42;;;11.77;;
85081;SDS011;75424;50.762;7.178;2024-03-22T01:03:21;22.05;;;12.30;;
85081;SDS011;75424;50.762;7.178;2024-03-22T01:05:47;23.67;;;10.95;;
85081;SDS011;75424;50.762;7.178;2024-03-22T01:08:12;18.30;;;10.38;;
85081;SDS011;75424;50.762;7.178;2024-03-22T01:10:38;19.77;;;11.30;;
85081;SDS011;75424;50.762;7.178;2024-03-22T01:13:04;20.52;;;10.57;;
85081;SDS011;75424;50.762;7.178;2024-03-22T01:15:29;19.45;;;10.00;;
85081;SDS011;75424;50.762;7.178;2024-03-22T01:17:54;20.63;;;9.90;;
85081;SDS011;75424;50.762;7.178;2024-03-22T01:20:20;15.48;;;8.23;;
85081;SDS011;75424;50.762;7.178;2024-03-22T01:22:45;18.60;;;10.00;;
85081;SDS011;75424;50.762;7.178;2024-03-22T01:25:11;15.25;;;8.77;;
85081;SDS011;75424;50.762;7.178;2024-03-22T01:27:36;15.45;;;9.45;;
85081;SDS011;75424;50.762;7.178;2024-03-22T01:30:01;13.82;;;8.73;;
85081;SDS011;75424;50.762;7.178;2024-03-22T01:32:27;17.35;;;8.90;;
85081;SDS011;75424;50.762;7.178;2024-03-22T01:34:53;14.70;;;8.20;;
85081;SDS011;75424;50.762;7.178;2024-03-22T01:37:18;16.00;;;9.25;;
85081;SDS011;75424;50.762;7.178;2024-03-22T01:39:43;18.02;;;8.82;;
85081;SDS011;75424;50.762;7.178;2024-03-22T01:42:09;19.02;;;9.68;;
85081;SDS011;75424;50.762;7.178;2024-03-22T01:44:34;20.57;;;9.33;;
85081;SDS011;75424;50.762;7.178;2024-03-22T01:46:59;14.45;;;7.25;;
85081;SDS011;75424;50.762;7.178;2024-03-22T01:49:26;16.33;;;8.85;;
85081;SDS011;75424;50.762;7.178;2024-03-22T01:51:52;17.35;;;8.80;;
85081;SDS011;75424;50.762;7.178;2024-03-22T01:54:17;15.07;;;8.65;;
85081;SDS011;75424;50.762;7.178;2024-03-22T01:56:45;21.95;;;10.40;;
85081;SDS011;75424;50.762;7.178;2024-03-22T01:59:11;18.02;;;9.82;;
85081;SDS011;75424;50.762;7.178;2024-03-22T02:01:37;21.13;;;9.38;;
85081;SDS011;75424;50.762;7.178;2024-03-22T02:04:03;19.58;;;9.98;;
85081;SDS011;75424;50.762;7.178;2024-03-22T02:06:28;17.00;;;8.95;;
85081;SDS011;75424;50.762;7.178;2024-03-22T02:08:54;18.63;;;9.63;;
85081;SDS011;75424;50.762;7.178;2024-03-22T02:11:19;18.45;;;9.75;;
85081;SDS011;75424;50.762;7.178;2024-03-22T02:13:45;16.48;;;8.32;;
85081;SDS011;75424;50.762;7.178;2024-03-22T02:16:10;16.95;;;9.50;;
85081;SDS011;75424;50.762;7.178;2024-03-22T02:18:36;20.60;;;10.38;;
85081;SDS011;75424;50.762;7.178;2024-03-22T02:21:01;17.48;;;8.85;;
85081;SDS011;75424;50.762;7.178;2024-03-22T02:23:36;16.35;;;8.85;;
85081;SDS011;75424;50.762;7.178;2024-03-22T02:26:03;15.73;;;8.65;;
85081;SDS011;75424;50.762;7.178;2024-03-22T02:28:30;15.68;;;7.88;;
85081;SDS011;75424;50.762;7.178;2024-03-22T02:30:57;12.13;;;6.88;;
85081;SDS011;75424;50.762;7.178;2024-03-22T02:33:22;16.48;;;7.25;;
85081;SDS011;75424;50.762;7.178;2024-03-22T02:35:48;14.60;;;8.00;;
85081;SDS011;75424;50.762;7.178;2024-03-22T02:38:14;18.20;;;9.18;;
85081;SDS011;75424;50.762;7.178;2024-03-22T02:40:42;16.67;;;8.10;;
85081;SDS011;75424;50.762;7.178;2024-03-22T02:43:08;15.60;;;8.27;;
85081;SDS011;75424;50.762;7.178;2024-03-22T02:45:33;15.33;;;9.23;;
85081;SDS011;75424;50.762;7.178;2024-03-22T02:47:58;18.57;;;9.03;;
85081;SDS011;75424;50.762;7.178;2024-03-22T02:50:24;14.35;;;8.60;;
85081;SDS011;75424;50.762;7.178;2024-03-22T02:52:49;13.45;;;7.93;;
85081;SDS011;75424;50.762;7.178;2024-03-22T02:55:15;15.15;;;8.55;;
85081;SDS011;75424;50.762;7.178;2024-03-22T02:57:40;15.15;;;7.78;;
85081;SDS011;75424;50.762;7.178;2024-03-22T03:00:06;15.70;;;8.38;;
85081;SDS011;75424;50.762;7.178;2024-03-22T03:02:32;16.60;;;8.18;;
85081;SDS011;75424;50.762;7.178;2024-03-22T03:04:57;17.75;;;8.02;;
85081;SDS011;75424;50.762;7.178;2024-03-22T03:07:23;13.88;;;7.95;;
85081;SDS011;75424;50.762;7.178;2024-03-22T03:09:49;15.65;;;7.88;;
85081;SDS011;75424;50.762;7.178;2024-03-22T03:12:14;15.60;;;8.68;;
85081;SDS011;75424;50.762;7.178;2024-03-22T03:14:40;13.55;;;7.53;;
85081;SDS011;75424;50.762;7.178;2024-03-22T03:17:05;12.47;;;6.47;;
85081;SDS011;75424;50.762;7.178;2024-03-22T03:19:30;11.27;;;6.90;;
85081;SDS011;75424;50.762;7.178;2024-03-22T03:21:56;13.82;;;6.95;;
85081;SDS011;75424;50.762;7.178;2024-03-22T03:24:21;14.77;;;7.03;;
85081;SDS011;75424;50.762;7.178;2024-03-22T03:26:46;11.63;;;6.97;;
85081;SDS011;75424;50.762;7.178;2024-03-22T03:29:12;10.70;;;6.32;;
85081;SDS011;75424;50.762;7.178;2024-03-22T03:31:37;12.05;;;6.45;;
85081;SDS011;75424;50.762;7.178;2024-03-22T03:34:02;13.20;;;7.53;;
85081;SDS011;75424;50.762;7.178;2024-03-22T03:36:28;16.35;;;8.13;;
85081;SDS011;75424;50.762;7.178;2024-03-22T03:38:53;11.68;;;6.50;;
85081;SDS011;75424;50.762;7.178;2024-03-22T03:41:18;13.52;;;7.50;;
85081;SDS011;75424;50.762;7.178;2024-03-22T03:43:44;12.23;;;6.93;;
85081;SDS011;75424;50.762;7.178;2024-03-22T03:46:09;10.40;;;6.63;;
85081;SDS011;75424;50.762;7.178;2024-03-22T03:48:34;12.02;;;7.30;;
85081;SDS011;75424;50.762;7.178;2024-03-22T03:51:00;15.48;;;7.47;;
85081;SDS011;75424;50.762;7.178;2024-03-22T03:53:28;13.02;;;7.25;;
85081;SDS011;75424;50.762;7.178;2024-03-22T03:55:54;11.68;;;7.18;;
85081;SDS011;75424;50.762;7.178;2024-03-22T03:58:19;10.13;;;6.47;;
85081;SDS011;75424;50.762;7.178;2024-03-22T04:00:44;11.52;;;6.50;;
85081;SDS011;75424;50.762;7.178;2024-03-22T04:03:10;13.35;;;7.78;;
85081;SDS011;75424;50.762;7.178;2024-03-22T04:05:35;12.05;;;6.90;;
85081;SDS011;75424;50.762;7.178;2024-03-22T04:08:00;12.10;;;6.60;;
85081;SDS011;75424;50.762;7.178;2024-03-22T04:10:26;11.33;;;6.60;;
85081;SDS011;75424;50.762;7.178;2024-03-22T04:12:51;11.70;;;6.97;;
85081;SDS011;75424;50.762;7.178;2024-03-22T04:15:16;12.52;;;7.03;;
85081;SDS011;75424;50.762;7.178;2024-03-22T04:17:42;13.35;;;6.55;;
85081;SDS011;75424;50.762;7.178;2024-03-22T04:20:07;12.88;;;6.57;;
85081;SDS011;75424;50.762;7.178;2024-03-22T04:22:33;12.50;;;6.28;;
85081;SDS011;75424;50.762;7.178;2024-03-22T04:24:59;13.63;;;6.80;;
85081;SDS011;75424;50.762;7.178;2024-03-22T04:27:24;10.77;;;6.85;;
85081;SDS011;75424;50.762;7.178;2024-03-22T04:29:49;10.45;;;6.70;;
85081;SDS011;75424;50.762;7.178;2024-03-22T04:32:15;12.25;;;6.35;;
85081;SDS011;75424;50.762;7.178;2024-03-22T04:34:43;10.85;;;7.05;;
85081;SDS011;75424;50.762;7.178;2024-03-22T04:37:09;11.55;;;6.10;;
85081;SDS011;75424;50.762;7.178;2024-03-22T04:39:36;12.88;;;6.70;;
85081;SDS011;75424;50.762;7.178;2024-03-22T04:42:02;13.43;;;6.65;;
85081;SDS011;75424;50.762;7.178;2024-03-22T04:44:28;11.10;;;6.43;;
85081;SDS011;75424;50.762;7.178;2024-03-22T04:46:54;13.70;;;7.47;;
85081;SDS011;75424;50.762;7.178;2024-03-22T04:49:19;12.38;;;6.25;;
85081;SDS011;75424;50.762;7.178;2024-03-22T04:51:44;8.32;;;5.50;;
85081;SDS011;75424;50.762;7.178;2024-03-22T04:54:09;10.63;;;6.80;;
85081;SDS011;75424;50.762;7.178;2024-03-22T04:56:35;12.98;;;6.47;;
85081;SDS011;75424;50.762;7.178;2024-03-22T04:59:00;11.65;;;5.88;;
85081;SDS011;75424;50.762;7.178;2024-03-22T05:01:25;11.95;;;6.38;;
85081;SDS011;75424;50.762;7.178;2024-03-22T05:03:51;10.43;;;6.03;;
85081;SDS011;75424;50.762;7.178;2024-03-22T05:06:17;12.20;;;6.53;;
85081;SDS011;75424;50.762;7.178;2024-03-22T05:08:42;11.57;;;6.30;;
85081;SDS011;75424;50.762;7.178;2024-03-22T05:11:07;12.70;;;6.10;;
85081;SDS011;75424;50.762;7.178;2024-03-22T05:13:33;11.65;;;6.82;;
85081;SDS011;75424;50.762;7.178;2024-03-22T05:15:58;14.20;;;6.93;;
85081;SDS011;75424;50.762;7.178;2024-03-22T05:18:23;12.18;;;6.70;;
85081;SDS011;75424;50.762;7.178;2024-03-22T05:20:49;12.45;;;6.35;;
85081;SDS011;75424;50.762;7.178;2024-03-22T05:23:14;9.10;;;5.47;;
85081;SDS011;75424;50.762;7.178;2024-03-22T05:25:41;10.70;;;5.63;;
85081;SDS011;75424;50.762;7.178;2024-03-22T05:28:07;10.43;;;5.32;;
85081;SDS011;75424;50.762;7.178;2024-03-22T05:30:32;10.63;;;5.53;;
85081;SDS011;75424;50.762;7.178;2024-03-22T05:32:58;10.60;;;5.65;;
85081;SDS011;75424;50.762;7.178;2024-03-22T05:35:23;12.38;;;5.50;;
85081;SDS011;75424;50.762;7.178;2024-03-22T05:37:48;11.27;;;5.63;;
85081;SDS011;75424;50.762;7.178;2024-03-22T05:40:14;11.63;;;5.60;;
85081;SDS011;75424;50.762;7.178;2024-03-22T05:42:41;7.95;;;5.22;;
85081;SDS011;75424;50.762;7.178;2024-03-22T05:45:06;12.88;;;5.47;;
85081;SDS011;75424;50.762;7.178;2024-03-22T05:47:32;8.60;;;4.97;;
85081;SDS011;75424;50.762;7.178;2024-03-22T05:49:58;12.60;;;7.22;;
85081;SDS011;75424;50.762;7.178;2024-03-22T05:52:27;11.10;;;6.10;;
85081;SDS011;75424;50.762;7.178;2024-03-22T05:54:52;10.27;;;5.18;;
85081;SDS011;75424;50.762;7.178;2024-03-22T05:57:18;13.43;;;6.60;;
85081;SDS011;75424;50.762;7.178;2024-03-22T05:59:43;10.50;;;5.95;;
85081;SDS011;75424;50.762;7.178;2024-03-22T06:02:08;11.05;;;5.57;;
85081;SDS011;75424;50.762;7.178;2024-03-22T06:04:34;10.93;;;6.30;;
85081;SDS011;75424;50.762;7.178;2024-03-22T06:06:59;12.15;;;5.43;;
85081;SDS011;75424;50.762;7.178;2024-03-22T06:09:28;9.98;;;6.03;;
85081;SDS011;75424;50.762;7.178;2024-03-22T06:12:02;7.95;;;4.68;;
85081;SDS011;75424;50.762;7.178;2024-03-22T06:14:28;7.45;;;4.88;;
85081;SDS011;75424;50.762;7.178;2024-03-22T06:16:54;10.52;;;4.97;;
85081;SDS011;75424;50.762;7.178;2024-03-22T06:19:19;9.48;;;4.80;;
85081;SDS011;75424;50.762;7.178;2024-03-22T06:21:45;9.60;;;5.30;;
85081;SDS011;75424;50.762;7.178;2024-03-22T06:24:10;10.73;;;5.95;;
85081;SDS011;75424;50.762;7.178;2024-03-22T06:26:36;9.93;;;5.03;;
85081;SDS011;75424;50.762;7.178;2024-03-22T06:29:01;9.48;;;5.13;;
85081;SDS011;75424;50.762;7.178;2024-03-22T06:31:27;9.20;;;5.15;;
85081;SDS011;75424;50.762;7.178;2024-03-22T06:33:53;10.43;;;4.82;;
85081;SDS011;75424;50.762;7.178;2024-03-22T06:36:19;7.95;;;5.15;;
85081;SDS011;75424;50.762;7.178;2024-03-22T06:38:44;8.25;;;4.97;;
85081;SDS011;75424;50.762;7.178;2024-03-22T06:41:10;7.05;;;4.43;;
85081;SDS011;75424;50.762;7.178;2024-03-22T06:43:35;8.77;;;5.55;;
85081;SDS011;75424;50.762;7.178;2024-03-22T06:46:00;8.88;;;5.70;;
85081;SDS011;75424;50.762;7.178;2024-03-22T06:48:26;8.35;;;5.00;;
85081;SDS011;75424;50.762;7.178;2024-03-22T06:50:51;9.50;;;4.88;;
85081;SDS011;75424;50.762;7.178;2024-03-22T06:53:16;10.32;;;4.50;;
85081;SDS011;75424;50.762;7.178;2024-03-22T06:55:42;7.47;;;4.88;;
85081;SDS011;75424;50.762;7.178;2024-03-22T06:58:07;8.00;;;4.57;;
85081;SDS011;75424;50.762;7.178;2024-03-22T07:00:32;7.85;;;4.53;;
85081;SDS011;75424;50.762;7.178;2024-03-22T07:02:59;8.13;;;4.78;;
85081;SDS011;75424;50.762;7.178;2024-03-22T07:05:27;6.97;;;4.40;;
85081;SDS011;75424;50.762;7.178;2024-03-22T07:07:53;7.05;;;3.92;;
85081;SDS011;75424;50.762;7.178;2024-03-22T07:10:21;7.22;;;4.75;;
85081;SDS011;75424;50.762;7.178;2024-03-22T07:12:48;9.18;;;5.00;;
85081;SDS011;75424;50.762;7.178;2024-03-22T07:15:13;7.15;;;4.63;;
85081;SDS011;75424;50.762;7.178;2024-03-22T07:17:38;9.30;;;4.68;;
85081;SDS011;75424;50.762;7.178;2024-03-22T07:20:04;12.93;;;5.00;;
85081;SDS011;75424;50.762;7.178;2024-03-22T07:22:31;6.97;;;4.30;;
85081;SDS011;75424;50.762;7.178;2024-03-22T07:24:56;7.97;;;4.27;;
85081;SDS011;75424;50.762;7.178;2024-03-22T07:27:22;8.55;;;4.35;;
85081;SDS011;75424;50.762;7.178;2024-03-22T07:29:47;8.00;;;4.47;;
85081;SDS011;75424;50.762;7.178;2024-03-22T07:32:13;7.00;;;4.43;;
85081;SDS011;75424;50.762;7.178;2024-03-22T07:34:38;8.45;;;5.25;;
85081;SDS011;75424;50.762;7.178;2024-03-22T07:37:04;8.75;;;4.63;;
85081;SDS011;75424;50.762;7.178;2024-03-22T07:39:29;9.75;;;4.18;;
85081;SDS011;75424;50.762;7.178;2024-03-22T07:41:55;6.47;;;4.38;;
85081;SDS011;75424;50.762;7.178;2024-03-22T07:44:20;6.95;;;4.53;;
85081;SDS011;75424;50.762;7.178;2024-03-22T07:46:45;6.07;;;4.53;;
85081;SDS011;75424;50.762;7.178;2024-03-22T07:49:14;6.22;;;3.97;;
85081;SDS011;75424;50.762;7.178;2024-03-22T07:51:39;10.20;;;4.43;;
85081;SDS011;75424;50.762;7.178;2024-03-22T07:54:05;8.02;;;4.10;;
85081;SDS011;75424;50.762;7.178;2024-03-22T07:56:30;8.77;;;4.45;;
85081;SDS011;75424;50.762;7.178;2024-03-22T07:58:56;14.57;;;5.85;;
85081;SDS011;75424;50.762;7.178;2024-03-22T08:01:21;7.43;;;4.82;;
85081;SDS011;75424;50.762;7.178;2024-03-22T08:03:47;9.88;;;5.72;;
85081;SDS011;75424;50.762;7.178;2024-03-22T08:06:12;10.55;;;5.65;;
85081;SDS011;75424;50.762;7.178;2024-03-22T08:08:38;9.43;;;5.47;;
85081;SDS011;75424;50.762;7.178;2024-03-22T08:11:03;10.43;;;5.78;;
85081;SDS011;75424;50.762;7.178;2024-03-22T08:13:29;8.60;;;5.28;;
85081;SDS011;75424;50.762;7.178;2024-03-22T08:15:54;10.27;;;5.72;;
85081;SDS011;75424;50.762;7.178;2024-03-22T08:18:19;7.25;;;5.13;;
85081;SDS011;75424;50.762;7.178;2024-03-22T08:20:45;8.70;;;5.28;;
85081;SDS011;75424;50.762;7.178;2024-03-22T08:23:10;7.93;;;5.63;;
85081;SDS011;75424;50.762;7.178;2024-03-22T08:25:35;10.07;;;5.57;;
85081;SDS011;75424;50.762;7.178;2024-03-22T08:28:02;11.60;;;5.90;;
85081;SDS011;75424;50.762;7.178;2024-03-22T08:30:27;9.23;;;5.78;;
85081;SDS011;75424;50.762;7.178;2024-03-22T08:32:52;10.57;;;6.22;;
85081;SDS011;75424;50.762;7.178;2024-03-22T08:35:18;11.20;;;6.78;;
85081;SDS011;75424;50.762;7.178;2024-03-22T08:37:43;10.75;;;6.45;;
85081;SDS011;75424;50.762;7.178;2024-03-22T08:40:09;8.77;;;5.88;;
85081;SDS011;75424;50.762;7.178;2024-03-22T08:42:35;9.98;;;6.32;;
85081;SDS011;75424;50.762;7.178;2024-03-22T08:45:01;10.27;;;7.03;;
85081;SDS011;75424;50.762;7.178;2024-03-22T08:47:26;12.05;;;7.07;;
85081;SDS011;75424;50.762;7.178;2024-03-22T08:49:51;12.27;;;6.88;;
85081;SDS011;75424;50.762;7.178;2024-03-22T08:52:17;13.52;;;8.20;;
85081;SDS011;75424;50.762;7.178;2024-03-22T08:54:42;13.07;;;7.43;;
85081;SDS011;75424;50.762;7.178;2024-03-22T08:57:07;11.18;;;7.38;;
85081;SDS011;75424;50.762;7.178;2024-03-22T08:59:33;13.27;;;8.38;;
85081;SDS011;75424;50.762;7.178;2024-03-22T09:02:00;14.50;;;8.73;;
85081;SDS011;75424;50.762;7.178;2024-03-22T09:04:25;14.73;;;9.05;;
85081;SDS011;75424;50.762;7.178;2024-03-22T09:06:50;15.52;;;9.60;;
85081;SDS011;75424;50.762;7.178;2024-03-22T09:09:16;18.23;;;10.15;;
85081;SDS011;75424;50.762;7.178;2024-03-22T09:11:41;16.48;;;11.43;;
85081;SDS011;75424;50.762;7.178;2024-03-22T09:14:07;18.63;;;10.18;;
85081;SDS011;75424;50.762;7.178;2024-03-22T09:16:32;19.17;;;12.30;;
85081;SDS011;75424;50.762;7.178;2024-03-22T09:18:58;16.25;;;10.57;;
85081;SDS011;75424;50.762;7.178;2024-03-22T09:21:23;16.98;;;10.80;;
85081;SDS011;75424;50.762;7.178;2024-03-22T09:23:49;17.42;;;10.13;;
85081;SDS011;75424;50.762;7.178;2024-03-22T09:26:15;15.93;;;9.85;;
85081;SDS011;75424;50.762;7.178;2024-03-22T09:28:40;16.63;;;11.05;;
85081;SDS011;75424;50.762;7.178;2024-03-22T09:31:07;18.15;;;10.77;;
85081;SDS011;75424;50.762;7.178;2024-03-22T09:33:33;15.98;;;10.98;;
85081;SDS011;75424;50.762;7.178;2024-03-22T09:35:59;15.88;;;10.20;;
85081;SDS011;75424;50.762;7.178;2024-03-22T09:38:24;17.98;;;11.00;;
85081;SDS011;75424;50.762;7.178;2024-03-22T09:40:50;17.02;;;10.45;;
85081;SDS011;75424;50.762;7.178;2024-03-22T09:43:19;17.95;;;10.02;;
85081;SDS011;75424;50.762;7.178;2024-03-22T09:45:45;14.18;;;10.48;;
85081;SDS011;75424;50.762;7.178;2024-03-22T09:48:11;17.33;;;10.88;;
85081;SDS011;75424;50.762;7.178;2024-03-22T09:50:37;20.98;;;11.18;;
85081;SDS011;75424;50.762;7.178;2024-03-22T09:53:04;19.85;;;10.68;;
85081;SDS011;75424;50.762;7.178;2024-03-22T09:55:31;16.92;;;10.38;;
85081;SDS011;75424;50.762;7.178;2024-03-22T09:57:57;19.10;;;11.02;;
85081;SDS011;75424;50.762;7.178;2024-03-22T10:00:23;15.65;;;9.65;;
85081;SDS011;75424;50.762;7.178;2024-03-22T10:02:50;16.77;;;10.20;;
85081;SDS011;75424;50.762;7.178;2024-03-22T10:05:16;17.02;;;10.70;;
85081;SDS011;75424;50.762;7.178;2024-03-22T10:07:43;14.63;;;9.77;;
85081;SDS011;75424;50.762;7.178;2024-03-22T10:10:08;16.23;;;10.75;;
85081;SDS011;75424;50.762;7.178;2024-03-22T10:12:35;20.58;;;10.75;;
85081;SDS011;75424;50.762;7.178;2024-03-22T10:15:00;15.68;;;9.82;;
85081;SDS011;75424;50.762;7.178;2024-03-22T10:17:26;17.23;;;11.05;;
85081;SDS011;75424;50.762;7.178;2024-03-22T10:19:53;14.52;;;9.40;;
85081;SDS011;75424;50.762;7.178;2024-03-22T10:22:19;15.02;;;9.25;;
85081;SDS011;75424;50.762;7.178;2024-03-22T10:24:44;15.50;;;10.20;;
85081;SDS011;75424;50.762;7.178;2024-03-22T10:27:10;15.68;;;9.20;;
85081;SDS011;75424;50.762;7.178;2024-03-22T10:29:36;15.07;;;9.05;;
85081;SDS011;75424;50.762;7.178;2024-03-22T10:32:01;14.32;;;9.15;;
85081;SDS011;75424;50.762;7.178;2024-03-22T10:34:27;13.57;;;7.57;;
85081;SDS011;75424;50.762;7.178;2024-03-22T10:36:55;11.43;;;6.95;;
85081;SDS011;75424;50.762;7.178;2024-03-22T10:39:22;10.68;;;5.70;;
85081;SDS011;75424;50.762;7.178;2024-03-22T10:41:49;9.50;;;6.38;;
85081;SDS011;75424;50.762;7.178;2024-03-22T10:44:15;10.07;;;6.20;;
85081;SDS011;75424;50.762;7.178;2024-03-22T10:46:45;10.18;;;5.85;;
85081;SDS011;75424;50.762;7.178;2024-03-22T10:49:14;9.82;;;6.53;;
85081;SDS011;75424;50.762;7.178;2024-03-22T10:51:42;10.63;;;5.70;;
85081;SDS011;75424;50.762;7.178;2024-03-22T10:54:11;12.80;;;7.70;;
85081;SDS011;75424;50.762;7.178;2024-03-22T10:56:42;10.18;;;5.85;;
85081;SDS011;75424;50.762;7.178;2024-03-22T10:59:08;9.02;;;5.55;;
85081;SDS011;75424;50.762;7.178;2024-03-22T11:01:33;7.05;;;4.55;;
85081;SDS011;75424;50.762;7.178;2024-03-22T11:04:04;6.38;;;4.55;;
85081;SDS011;75424;50.762;7.178;2024-03-22T11:06:35;9.23;;;5.10;;
85081;SDS011;75424;50.762;7.178;2024-03-22T11:09:02;9.05;;;4.85;;
85081;SDS011;75424;50.762;7.178;2024-03-22T11:11:31;7.68;;;4.65;;
85081;SDS011;75424;50.762;7.178;2024-03-22T11:14:02;6.78;;;4.20;;
85081;SDS011;75424;50.762;7.178;2024-03-22T11:16:27;6.68;;;4.50;;
85081;SDS011;75424;50.762;7.178;2024-03-22T11:18:53;7.47;;;4.63;;
85081;SDS011;75424;50.762;7.178;2024-03-22T11:21:20;9.18;;;4.95;;
85081;SDS011;75424;50.762;7.178;2024-03-22T11:23:45;8.68;;;4.85;;
85081;SDS011;75424;50.762;7.178;2024-03-22T11:26:11;6.93;;;4.70;;
85081;SDS011;75424;50.762;7.178;2024-03-22T11:28:37;9.20;;;5.65;;
85081;SDS011;75424;50.762;7.178;2024-03-22T11:31:03;6.95;;;5.07;;
85081;SDS011;75424;50.762;7.178;2024-03-22T11:33:29;9.15;;;4.75;;
85081;SDS011;75424;50.762;7.178;2024-03-22T11:35:55;8.75;;;4.80;;
85081;SDS011;75424;50.762;7.178;2024-03-22T11:38:23;8.18;;;4.10;;
85081;SDS011;75424;50.762;7.178;2024-03-22T11:40:51;8.05;;;4.47;;
85081;SDS011;75424;50.762;7.178;2024-03-22T11:43:18;6.82;;;3.88;;
85081;SDS011;75424;50.762;7.178;2024-03-22T11:45:43;7.35;;;3.38;;
85081;SDS011;75424;50.762;7.178;2024-03-22T11:48:09;7.97;;;3.60;;
85081;SDS011;75424;50.762;7.178;2024-03-22T11:50:36;5.65;;;2.70;;
85081;SDS011;75424;50.762;7.178;2024-03-22T11:53:02;5.32;;;3.35;;
85081;SDS011;75424;50.762;7.178;2024-03-22T11:55:30;4.78;;;2.58;;
85081;SDS011;75424;50.762;7.178;2024-03-22T11:57:59;5.28;;;3.15;;
85081;SDS011;75424;50.762;7.178;2024-03-22T12:00:24;4.95;;;2.80;;
85081;SDS011;75424;50.762;7.178;2024-03-22T12:02:50;4.72;;;2.78;;
85081;SDS011;75424;50.762;7.178;2024-03-22T12:05:17;6.38;;;3.10;;
85081;SDS011;75424;50.762;7.178;2024-03-22T12:07:43;3.78;;;2.65;;
85081;SDS011;75424;50.762;7.178;2024-03-22T12:10:09;6.22;;;3.03;;
85081;SDS011;75424;50.762;7.178;2024-03-22T12:12:34;4.05;;;2.55;;
85081;SDS011;75424;50.762;7.178;2024-03-22T12:15:01;4.72;;;2.85;;
85081;SDS011;75424;50.762;7.178;2024-03-22T12:17:27;4.53;;;2.85;;
85081;SDS011;75424;50.762;7.178;2024-03-22T12:19:52;3.88;;;2.75;;
85081;SDS011;75424;50.762;7.178;2024-03-22T12:22:18;5.47;;;3.30;;
85081;SDS011;75424;50.762;7.178;2024-03-22T12:24:43;4.45;;;2.63;;
85081;SDS011;75424;50.762;7.178;2024-03-22T12:27:08;6.05;;;3.03;;
85081;SDS011;75424;50.762;7.178;2024-03-22T12:29:34;5.32;;;3.03;;
85081;SDS011;75424;50.762;7.178;2024-03-22T12:32:00;3.92;;;2.65;;
85081;SDS011;75424;50.762;7.178;2024-03-22T12:34:28;6.05;;;3.38;;
85081;SDS011;75424;50.762;7.178;2024-03-22T12:36:54;3.80;;;2.58;;
85081;SDS011;75424;50.762;7.178;2024-03-22T12:39:23;3.50;;;2.40;;
85081;SDS011;75424;50.762;7.178;2024-03-22T12:41:48;5.13;;;2.65;;
85081;SDS011;75424;50.762;7.178;2024-03-22T12:44:13;4.45;;;2.38;;
85081;SDS011;75424;50.762;7.178;2024-03-22T12:46:39;3.95;;;2.00;;
85081;SDS011;75424;50.762;7.178;2024-03-22T12:49:07;4.72;;;2.20;;
85081;SDS011;75424;50.762;7.178;2024-03-22T12:51:33;3.35;;;2.45;;
85081;SDS011;75424;50.762;7.178;2024-03-22T12:54:00;4.00;;;2.53;;
85081;SDS011;75424;50.762;7.178;2024-03-22T12:56:26;4.70;;;2.70;;
85081;SDS011;75424;50.762;7.178;2024-03-22T12:58:51;4.00;;;2.70;;
85081;SDS011;75424;50.762;7.178;2024-03-22T13:01:16;5.00;;;2.70;;
85081;SDS011;75424;50.762;7.178;2024-03-22T13:03:42;6.03;;;2.92;;
85081;SDS011;75424;50.762;7.178;2024-03-22T13:06:07;5.45;;;2.95;;
85081;SDS011;75424;50.762;7.178;2024-03-22T13:08:32;4.35;;;2.22;;
85081;SDS011;75424;50.762;7.178;2024-03-22T13:10:58;4.15;;;2.47;;
85081;SDS011;75424;50.762;7.178;2024-03-22T13:13:23;3.30;;;2.28;;
85081;SDS011;75424;50.762;7.178;2024-03-22T13:15:48;7.15;;;2.53;;
85081;SDS011;75424;50.762;7.178;2024-03-22T13:18:14;4.85;;;2.25;;
85081;SDS011;75424;50.762;7.178;2024-03-22T13:20:39;4.40;;;1.98;;
85081;SDS011;75424;50.762;7.178;2024-03-22T13:23:05;3.78;;;2.13;;
85081;SDS011;75424;50.762;7.178;2024-03-22T13:25:30;3.58;;;2.40;;
85081;SDS011;75424;50.762;7.178;2024-03-22T13:27:56;6.72;;;2.22;;
85081;SDS011;75424;50.762;7.178;2024-03-22T13:30:21;2.55;;;2.33;;
85081;SDS011;75424;50.762;7.178;2024-03-22T14:36:22;6.63;;;5.00;;
85081;SDS011;75424;50.762;7.178;2024-03-22T14:38:47;7.20;;;4.70;;
85081;SDS011;75424;50.762;7.178;2024-03-22T14:41:13;4.97;;;4.00;;
85081;SDS011;75424;50.762;7.178;2024-03-22T14:43:38;5.75;;;3.78;;
85081;SDS011;75424;50.762;7.178;2024-03-22T14:46:03;6.37;;;4.30;;
85081;SDS011;75424;50.762;7.178;2024-03-22T14:48:28;5.70;;;4.20;;
85081;SDS011;75424;50.762;7.178;2024-03-22T14:50:54;6.93;;;4.63;;
85081;SDS011;75424;50.762;7.178;2024-03-22T14:53:20;8.00;;;5.10;;
85081;SDS011;75424;50.762;7.178;2024-03-22T14:55:52;5.10;;;4.03;;
85081;SDS011;75424;50.762;7.178;2024-03-22T14:58:26;5.47;;;4.30;;
85081;SDS011;75424;50.762;7.178;2024-03-22T15:00:55;8.90;;;4.20;;
85081;SDS011;75424;50.762;7.178;2024-03-22T15:03:22;7.47;;;4.40;;
85081;SDS011;75424;50.762;7.178;2024-03-22T15:05:50;7.65;;;4.85;;
85081;SDS011;75424;50.762;7.178;2024-03-22T15:20:35;6.90;;;5.25;;
85081;SDS011;75424;50.762;7.178;2024-03-22T15:23:01;9.85;;;5.50;;
85081;SDS011;75424;50.762;7.178;2024-03-22T15:25:27;8.50;;;5.05;;
85081;SDS011;75424;50.762;7.178;2024-03-22T15:27:52;10.35;;;5.35;;
85081;SDS011;75424;50.762;7.178;2024-03-22T15:30:17;8.70;;;5.40;;
85081;SDS011;75424;50.762;7.178;2024-03-22T15:32:43;9.50;;;4.90;;
85081;SDS011;75424;50.762;7.178;2024-03-22T15:35:09;6.25;;;4.47;;
85081;SDS011;75424;50.762;7.178;2024-03-22T15:37:35;8.10;;;4.97;;
85081;SDS011;75424;50.762;7.178;2024-03-22T15:40:02;10.43;;;5.55;;
85081;SDS011;75424;50.762;7.178;2024-03-22T15:42:29;8.20;;;5.57;;
85081;SDS011;75424;50.762;7.178;2024-03-22T15:44:54;10.13;;;6.30;;